Time;durP1;ratioP1;P1;durP2;ratioP2;P2;SDS_P1;SDS_P2;PMS_P1;PMS_P2;Temp;Humidity;BMP_temperature;BMP_pressure;BME280_temperature;BME280_humidity;BME280_pressure;Samples;Min_cycle;Max_cycle;Signal;HPM_P1;HPM_P2
2021/03/25 00:01:42;;;;;;;9.07;6.10;;;27.20;90.20;;;;;;5104341;28;20023;-54
2021/03/25 00:04:08;;;;;;;11.93;6.47;;;27.10;90.40;;;;;;5102879;28;20274;-55
2021/03/25 00:06:45;;;;;;;8.88;5.68;;;27.10;90.30;;;;;;5104069;28;20091;-51
2021/03/25 00:09:28;;;;;;;10.57;6.20;;;27.10;90.30;;;;;;5103102;28;20020;-54
2021/03/25 00:11:55;;;;;;;6.82;6.13;;;27.10;90.20;;;;;;5103882;28;20020;-52
2021/03/25 00:14:23;;;;;;;8.02;6.07;;;27.10;90.20;;;;;;5104511;28;20024;-53
2021/03/25 00:16:49;;;;;;;8.50;5.65;;;27.10;90.10;;;;;;5103903;28;20024;-53
2021/03/25 00:19:16;;;;;;;11.13;5.93;;;27.10;90.10;;;;;;5104206;28;20040;-55
2021/03/25 00:21:43;;;;;;;8.50;6.35;;;27.10;90.10;;;;;;5104025;28;20051;-56
2021/03/25 00:24:14;;;;;;;8.90;6.55;;;27.10;90.00;;;;;;5104184;28;20024;-54
2021/03/25 00:26:42;;;;;;;11.25;7.00;;;27.10;90.10;;;;;;5103883;28;20028;-54
2021/03/25 00:29:16;;;;;;;11.20;6.63;;;27.10;90.00;;;;;;5104085;28;20080;-50
2021/03/25 00:31:44;;;;;;;10.07;6.53;;;27.10;89.80;;;;;;5102429;28;20031;-53
2021/03/25 00:34:11;;;;;;;8.52;7.47;;;27.00;89.50;;;;;;5104166;28;20323;-48
2021/03/25 00:36:37;;;;;;;7.78;5.05;;;27.10;89.50;;;;;;5103685;28;20024;-53
2021/03/25 00:39:10;;;;;;;13.57;5.70;;;27.00;89.30;;;;;;5103998;28;20024;-52
2021/03/25 00:41:37;;;;;;;6.68;5.35;;;27.00;89.30;;;;;;5103681;28;20022;-53
2021/03/25 00:44:06;;;;;;;10.00;5.30;;;27.00;89.20;;;;;;5103855;28;20032;-49
2021/03/25 00:46:33;;;;;;;8.43;4.55;;;27.00;89.00;;;;;;5103606;28;20016;-53
2021/03/25 00:49:01;;;;;;;6.95;5.00;;;27.00;89.10;;;;;;5103430;28;20016;-51
2021/03/25 00:51:28;;;;;;;8.88;4.20;;;27.00;89.00;;;;;;5103680;28;20026;-55
2021/03/25 00:53:56;;;;;;;7.13;4.30;;;27.00;88.90;;;;;;5107983;28;20264;-52
2021/03/25 00:56:22;;;;;;;9.80;4.28;;;26.90;88.90;;;;;;5107713;28;20320;-52
2021/03/25 00:58:49;;;;;;;10.88;4.22;;;26.90;88.90;;;;;;5107715;28;20028;-50
2021/03/25 01:01:16;;;;;;;6.40;4.40;;;26.90;88.90;;;;;;5107707;28;20032;-47
2021/03/25 01:03:43;;;;;;;8.55;4.40;;;26.90;89.30;;;;;;5107614;28;20024;-49
2021/03/25 01:06:10;;;;;;;10.70;4.32;;;26.90;89.30;;;;;;5107445;28;20020;-49
2021/03/25 01:08:37;;;;;;;11.82;4.72;;;26.80;89.30;;;;;;5107377;28;20030;-51
2021/03/25 01:11:12;;;;;;;6.53;4.68;;;26.80;89.40;;;;;;5105896;28;20027;-52
2021/03/25 01:13:43;;;;;;;9.93;4.32;;;26.80;90.00;;;;;;5107370;28;20197;-46
2021/03/25 01:16:39;;;;;;;10.85;4.22;;;26.80;89.50;;;;;;5111780;28;20015;-50
2021/03/25 01:19:18;;;;;;;9.80;4.15;;;26.80;89.50;;;;;;5110352;28;20060;-53
2021/03/25 01:21:45;;;;;;;6.00;4.03;;;26.80;89.30;;;;;;5109559;28;20067;-45
2021/03/25 01:24:13;;;;;;;6.45;4.15;;;26.80;89.50;;;;;;5117330;28;20102;-53
2021/03/25 01:26:40;;;;;;;13.60;4.20;;;26.70;89.40;;;;;;5122012;28;20330;-53
2021/03/25 01:29:07;;;;;;;7.13;4.38;;;26.80;89.40;;;;;;5127458;28;20226;-53
2021/03/25 01:31:35;;;;;;;8.98;4.32;;;26.80;89.60;;;;;;5127169;28;20074;-46
2021/03/25 01:34:02;;;;;;;8.65;4.50;;;26.70;89.50;;;;;;5127078;28;20027;-44
2021/03/25 01:36:29;;;;;;;5.63;3.90;;;26.70;89.80;;;;;;5127067;28;20047;-49
2021/03/25 01:38:55;;;;;;;7.65;4.40;;;26.70;89.80;;;;;;5127327;27;20065;-46
2021/03/25 01:41:27;;;;;;;8.70;4.50;;;26.70;89.60;;;;;;5127277;28;20015;-53
2021/03/25 01:43:55;;;;;;;8.77;3.97;;;26.80;89.10;;;;;;5117282;28;20220;-49
2021/03/25 01:46:38;;;;;;;7.05;4.13;;;26.80;89.20;;;;;;5126889;28;20015;-47
2021/03/25 01:49:11;;;;;;;16.25;10.25;;;26.80;89.30;;;;;;5127298;28;20035;-49
2021/03/25 01:51:43;;;;;;;23.15;17.30;;;26.80;89.40;;;;;;5126745;28;20020;-48
2021/03/25 01:54:10;;;;;;;12.15;9.57;;;26.80;89.40;;;;;;5127379;28;20153;-48
2021/03/25 01:57:01;;;;;;;13.00;8.07;;;26.80;89.20;;;;;;5127023;28;20231;-47
2021/03/25 01:59:43;;;;;;;12.75;6.40;;;26.80;89.50;;;;;;5126832;28;20037;-45
2021/03/25 02:02:19;;;;;;;10.60;6.00;;;26.80;89.30;;;;;;5126347;28;20312;-54
2021/03/25 02:05:13;;;;;;;7.18;5.45;;;26.70;89.40;;;;;;5126727;28;20024;-48
2021/03/25 02:07:43;;;;;;;10.73;5.55;;;26.80;89.80;;;;;;5123656;28;20028;-55
2021/03/25 02:10:12;;;;;;;6.90;5.38;;;26.80;89.80;;;;;;5121646;28;20035;-49
2021/03/25 02:12:48;;;;;;;6.53;5.20;;;26.70;90.00;;;;;;5126313;28;20301;-48
2021/03/25 02:15:39;;;;;;;11.35;5.55;;;26.80;90.00;;;;;;5126634;28;20020;-51
2021/03/25 02:18:22;;;;;;;9.85;4.65;;;26.80;90.10;;;;;;5126275;28;20220;-49
2021/03/25 02:21:36;;;;;;;7.25;5.32;;;26.80;90.00;;;;;;5126081;27;20043;-45
2021/03/25 02:24:18;;;;;;;7.90;4.90;;;26.80;89.80;;;;;;5071845;28;20254;-44
2021/03/25 02:27:16;;;;;;;10.90;6.40;;;26.80;89.60;;;;;;5125733;28;20015;-47
2021/03/25 02:29:52;;;;;;;18.33;11.05;;;26.80;89.40;;;;;;5126560;28;20028;-47
2021/03/25 02:32:39;;;;;;;17.90;10.32;;;26.90;89.30;;;;;;5126162;28;20019;-45
2021/03/25 02:35:21;;;;;;;17.70;8.63;;;26.80;89.20;;;;;;5126148;28;20102;-46
2021/03/25 02:38:00;;;;;;;10.68;6.90;;;26.80;89.20;;;;;;5125899;28;20049;-49
2021/03/25 02:40:33;;;;;;;10.13;6.20;;;26.90;89.00;;;;;;5125871;28;20116;-52
2021/03/25 02:43:25;;;;;;;12.05;5.90;;;26.80;88.80;;;;;;5125482;28;20034;-49
2021/03/25 02:46:04;;;;;;;9.88;5.55;;;26.90;88.80;;;;;;5125914;28;20019;-49
2021/03/25 02:48:34;;;;;;;11.45;5.03;;;26.90;88.60;;;;;;5125708;28;20304;-47
2021/03/25 02:51:10;;;;;;;10.80;5.65;;;26.90;88.50;;;;;;5125726;28;20125;-50
2021/03/25 02:53:41;;;;;;;9.88;4.85;;;26.80;88.70;;;;;;5125763;28;20028;-50
2021/03/25 02:56:20;;;;;;;7.70;4.68;;;26.80;88.60;;;;;;5125569;28;20019;-48
2021/03/25 02:58:56;;;;;;;9.88;4.50;;;26.90;88.50;;;;;;5125431;28;20194;-48
2021/03/25 03:01:24;;;;;;;9.13;4.60;;;26.90;88.40;;;;;;5125685;28;20304;-47
2021/03/25 03:04:00;;;;;;;10.73;5.28;;;26.90;88.20;;;;;;5125661;28;20024;-52
2021/03/25 03:06:39;;;;;;;14.45;4.82;;;26.80;88.00;;;;;;5125417;28;20364;-50
2021/03/25 03:09:09;;;;;;;7.00;4.78;;;26.90;87.90;;;;;;5125841;28;20032;-48
2021/03/25 03:11:41;;;;;;;7.65;4.47;;;26.80;87.80;;;;;;5124918;28;20060;-53
2021/03/25 03:14:26;;;;;;;9.23;7.20;;;26.80;87.80;;;;;;5125074;28;20023;-48
2021/03/25 03:17:03;;;;;;;10.68;9.55;;;26.80;88.00;;;;;;5125102;28;20023;-45
2021/03/25 03:19:54;;;;;;;11.88;9.15;;;26.80;88.00;;;;;;5123890;28;20055;-51
2021/03/25 03:22:21;;;;;;;14.75;11.85;;;26.80;87.90;;;;;;5124763;28;20030;-53
2021/03/25 03:24:50;;;;;;;11.45;6.82;;;26.80;88.00;;;;;;5117025;28;20022;-48
2021/03/25 03:27:35;;;;;;;14.05;9.05;;;26.80;87.90;;;;;;5124503;28;20369;-51
2021/03/25 03:30:07;;;;;;;11.45;8.38;;;26.80;88.10;;;;;;5124882;28;20027;-53
2021/03/25 03:32:56;;;;;;;14.70;7.60;;;26.80;88.20;;;;;;5124737;28;20263;-52
2021/03/25 03:35:51;;;;;;;10.13;5.93;;;26.80;88.10;;;;;;5124861;28;20027;-48
2021/03/25 03:38:27;;;;;;;10.35;5.43;;;26.70;88.10;;;;;;5124931;28;20023;-48
2021/03/25 03:40:56;;;;;;;9.45;5.47;;;26.70;88.20;;;;;;5124313;28;20016;-46
2021/03/25 03:43:24;;;;;;;8.85;5.00;;;26.70;88.30;;;;;;5104377;28;20035;-48
2021/03/25 03:46:01;;;;;;;10.38;5.00;;;26.70;88.40;;;;;;5104082;28;20020;-45
2021/03/25 03:48:41;;;;;;;8.30;4.40;;;26.70;88.30;;;;;;5119932;28;20087;-49
2021/03/25 03:51:13;;;;;;;9.48;4.80;;;26.70;88.20;;;;;;5124726;28;20087;-53
2021/03/25 03:53:40;;;;;;;5.88;4.25;;;26.70;88.10;;;;;;5124672;28;20031;-51
2021/03/25 03:56:33;;;;;;;10.50;4.65;;;26.70;88.00;;;;;;5124289;28;20280;-46
2021/03/25 03:59:08;;;;;;;9.23;4.40;;;26.70;88.00;;;;;;5124688;28;20028;-44
2021/03/25 04:01:44;;;;;;;7.72;4.28;;;26.60;87.90;;;;;;5124677;28;20020;-47
2021/03/25 04:04:41;;;;;;;7.25;4.10;;;26.60;87.90;;;;;;5124122;28;20055;-48
2021/03/25 04:07:15;;;;;;;10.25;4.45;;;26.60;88.00;;;;;;5122484;28;20023;-49
2021/03/25 04:09:52;;;;;;;10.93;4.30;;;26.60;87.90;;;;;;5125031;28;20027;-50
2021/03/25 04:12:28;;;;;;;10.27;4.18;;;26.60;88.00;;;;;;5124086;28;20050;-50
2021/03/25 04:15:05;;;;;;;11.65;3.90;;;26.60;87.90;;;;;;5124455;28;20339;-47
2021/03/25 04:17:34;;;;;;;11.55;4.28;;;26.60;87.90;;;;;;5124556;28;20023;-49
2021/03/25 04:20:11;;;;;;;6.03;3.75;;;26.60;88.10;;;;;;5124056;28;20043;-45
2021/03/25 04:22:55;;;;;;;6.90;3.97;;;26.60;88.00;;;;;;5124156;28;20018;-46
2021/03/25 04:25:49;;;;;;;6.15;3.90;;;26.60;88.00;;;;;;5124482;28;20012;-45
2021/03/25 04:28:34;;;;;;;7.93;4.15;;;26.60;88.00;;;;;;5130879;28;20099;-51
2021/03/25 04:31:02;;;;;;;10.02;3.85;;;26.60;87.70;;;;;;5130869;27;20012;-51
2021/03/25 04:33:30;;;;;;;5.70;3.65;;;26.60;87.50;;;;;;5131256;27;20040;-45
2021/03/25 04:35:59;;;;;;;9.35;3.60;;;26.60;87.50;;;;;;5130809;27;20068;-52
2021/03/25 04:38:38;;;;;;;9.43;3.33;;;26.60;87.50;;;;;;5131180;27;20054;-47
2021/03/25 04:41:06;;;;;;;7.38;3.10;;;26.60;87.40;;;;;;5130572;27;20023;-45
2021/03/25 04:43:32;;;;;;;7.50;3.53;;;26.60;87.10;;;;;;5130911;27;20058;-46
2021/03/25 04:46:35;;;;;;;7.70;3.22;;;26.60;87.10;;;;;;5131084;27;20022;-50
2021/03/25 04:49:12;;;;;;;5.20;2.63;;;26.60;86.80;;;;;;5120579;27;20028;-46
2021/03/25 04:51:38;;;;;;;9.93;3.20;;;26.60;86.90;;;;;;5110389;28;20016;-51
2021/03/25 04:54:36;;;;;;;5.65;2.85;;;26.50;86.70;;;;;;5110556;28;20262;-47
2021/03/25 04:57:27;;;;;;;6.68;3.10;;;26.60;86.80;;;;;;5106332;28;20062;-45
2021/03/25 04:59:56;;;;;;;7.68;3.45;;;26.50;86.80;;;;;;5105253;28;20106;-45
2021/03/25 05:02:24;;;;;;;10.20;4.00;;;26.50;86.80;;;;;;5108943;28;20024;-47
2021/03/25 05:04:55;;;;;;;6.50;3.95;;;26.50;86.90;;;;;;5110105;28;20024;-49
2021/03/25 05:07:32;;;;;;;10.85;4.03;;;26.50;86.90;;;;;;5110042;28;20073;-47
2021/03/25 05:09:59;;;;;;;7.03;3.20;;;26.60;87.00;;;;;;5110540;28;20024;-50
2021/03/25 05:12:27;;;;;;;10.02;3.90;;;26.50;87.00;;;;;;5110125;28;20038;-51
2021/03/25 05:15:03;;;;;;;7.57;3.50;;;26.50;87.00;;;;;;5110202;28;20028;-55
2021/03/25 05:17:52;;;;;;;6.43;4.20;;;26.50;87.00;;;;;;5110550;28;20094;-51
2021/03/25 05:20:22;;;;;;;8.45;4.22;;;26.50;87.00;;;;;;5110019;28;20058;-44
2021/03/25 05:23:09;;;;;;;7.18;4.30;;;26.50;87.10;;;;;;5110118;28;20020;-45
2021/03/25 05:26:12;;;;;;;11.05;4.20;;;26.50;87.10;;;;;;5110142;28;20079;-48
2021/03/25 05:28:44;;;;;;;8.10;4.53;;;26.50;87.20;;;;;;5110640;28;20020;-51
2021/03/25 05:31:14;;;;;;;8.55;4.80;;;26.50;87.30;;;;;;5110114;28;20030;-52
2021/03/25 05:33:41;;;;;;;10.25;4.60;;;26.50;87.30;;;;;;5110262;28;20043;-51
2021/03/25 05:36:12;;;;;;;5.85;4.35;;;26.50;87.40;;;;;;5110047;28;20024;-46
2021/03/25 05:38:39;;;;;;;11.15;4.55;;;26.50;87.50;;;;;;5106895;28;20065;-52
2021/03/25 05:41:24;;;;;;;6.93;4.38;;;26.50;87.40;;;;;;5106713;28;20032;-50
2021/03/25 05:43:59;;;;;;;11.23;4.55;;;26.50;87.50;;;;;;5107117;28;20020;-55
2021/03/25 05:46:35;;;;;;;8.48;4.75;;;26.50;87.60;;;;;;5106682;28;20043;-53
2021/03/25 05:49:28;;;;;;;10.00;5.38;;;26.50;87.50;;;;;;5106926;28;20083;-53
2021/03/25 05:52:36;;;;;;;8.25;4.72;;;26.50;87.50;;;;;;5102099;28;20078;-53
2021/03/25 05:55:17;;;;;;;7.38;5.00;;;26.50;87.30;;;;;;5064465;28;20033;-53
2021/03/25 05:57:52;;;;;;;10.55;5.07;;;26.50;87.30;;;;;;5104000;28;20028;-53
2021/03/25 06:00:39;;;;;;;6.32;4.90;;;26.50;87.40;;;;;;5106629;28;20089;-53
2021/03/25 06:03:11;;;;;;;7.72;5.43;;;26.50;87.20;;;;;;5106398;28;20028;-45
2021/03/25 06:05:38;;;;;;;6.10;5.10;;;26.50;87.20;;;;;;5106392;28;20326;-48
2021/03/25 06:08:26;;;;;;;8.02;4.88;;;26.50;87.20;;;;;;5106353;28;20213;-50
2021/03/25 06:11:34;;;;;;;6.38;4.70;;;26.50;87.00;;;;;;5106442;28;20031;-53
2021/03/25 06:14:27;;;;;;;8.32;5.07;;;26.50;87.00;;;;;;5106560;28;20028;-51
2021/03/25 06:16:53;;;;;;;;;;;26.50;86.90;;;;;;5104866;28;20224;-53
2021/03/25 06:19:40;;;;;;;10.00;5.10;;;26.50;87.00;;;;;;5106275;28;19912;-51
2021/03/25 06:22:24;;;;;;;6.13;4.40;;;26.40;87.00;;;;;;5105822;28;20036;-47
2021/03/25 06:25:28;;;;;;;6.93;5.10;;;26.50;87.00;;;;;;5105922;28;20095;-47
2021/03/25 06:28:16;;;;;;;10.90;4.72;;;26.50;86.70;;;;;;5105859;28;20170;-53
2021/03/25 06:31:06;;;;;;;9.00;4.78;;;26.50;86.80;;;;;;5105949;28;20024;-54
2021/03/25 06:33:57;;;;;;;9.57;4.50;;;26.50;86.90;;;;;;5105919;28;20016;-58
2021/03/25 06:36:45;;;;;;;6.82;4.45;;;26.40;87.00;;;;;;5105741;28;20028;-54
2021/03/25 06:39:45;;;;;;;10.07;5.22;;;26.40;87.20;;;;;;5105975;28;20043;-56
2021/03/25 06:42:12;;;;;;;6.80;5.03;;;26.40;87.70;;;;;;5105377;28;20028;-54
2021/03/25 06:44:54;;;;;;;10.50;4.53;;;26.40;87.70;;;;;;5106139;28;20015;-54
2021/03/25 06:47:34;;;;;;;10.00;4.35;;;26.40;87.90;;;;;;5105324;28;20216;-52
2021/03/25 06:50:04;;;;;;;6.28;4.63;;;26.40;87.80;;;;;;5104340;28;20336;-48
2021/03/25 06:52:35;;;;;;;8.35;4.60;;;26.40;87.90;;;;;;5105331;28;20087;-57
2021/03/25 06:55:22;;;;;;;11.80;4.70;;;26.40;87.70;;;;;;5105372;28;20035;-47
2021/03/25 06:58:04;;;;;;;7.78;4.30;;;26.30;88.00;;;;;;5101102;28;20021;-54
2021/03/25 07:00:40;;;;;;;5.88;4.53;;;26.30;88.10;;;;;;5103255;28;20024;-54
2021/03/25 07:03:12;;;;;;;9.35;5.03;;;26.30;88.10;;;;;;5104794;28;20196;-49
2021/03/25 07:05:39;;;;;;;8.63;4.53;;;26.30;88.50;;;;;;5105060;28;20316;-49
2021/03/25 07:08:15;;;;;;;8.13;4.50;;;26.30;88.20;;;;;;5098715;28;20316;-48
2021/03/25 07:10:43;;;;;;;11.23;4.65;;;26.30;88.30;;;;;;5104709;28;20028;-49
2021/03/25 07:13:18;;;;;;;6.22;4.50;;;26.30;88.30;;;;;;5098057;28;20316;-47
2021/03/25 07:15:46;;;;;;;7.75;4.50;;;26.30;88.40;;;;;;5096656;28;20032;-48
2021/03/25 07:18:31;;;;;;;7.72;4.40;;;26.30;88.60;;;;;;5097761;28;20088;-48
2021/03/25 07:21:30;;;;;;;5.68;4.47;;;26.30;88.40;;;;;;5098065;28;20123;-50
2021/03/25 07:24:00;;;;;;;6.53;4.45;;;26.30;88.20;;;;;;5072505;28;20040;-52
2021/03/25 07:26:36;;;;;;;8.00;4.82;;;26.30;88.30;;;;;;5104780;28;20023;-54
2021/03/25 07:29:11;;;;;;;8.32;4.57;;;26.20;88.20;;;;;;5105227;28;20042;-52
2021/03/25 07:32:01;;;;;;;6.65;4.47;;;26.30;88.30;;;;;;5104542;28;20024;-54
2021/03/25 07:34:44;;;;;;;8.68;4.70;;;26.30;88.50;;;;;;5105209;28;20058;-52
2021/03/25 07:37:14;;;;;;;7.80;4.10;;;26.30;88.40;;;;;;5104682;28;20016;-53
2021/03/25 07:39:50;;;;;;;7.45;4.75;;;26.30;88.70;;;;;;5105118;28;20032;-53
2021/03/25 07:42:37;;;;;;;9.45;4.55;;;26.30;89.10;;;;;;5104646;28;20023;-45
2021/03/25 07:45:17;;;;;;;10.73;5.05;;;26.20;88.20;;;;;;5104488;28;20126;-48
2021/03/25 07:47:44;;;;;;;5.22;4.70;;;26.30;88.60;;;;;;5104397;28;20133;-54
2021/03/25 07:50:30;;;;;;;9.18;4.90;;;26.30;88.50;;;;;;5104399;28;20057;-47
2021/03/25 07:53:14;;;;;;;9.50;4.50;;;26.20;88.80;;;;;;5104388;28;20117;-53
2021/03/25 07:55:41;;;;;;;5.75;4.50;;;26.20;88.80;;;;;;5104132;28;20027;-44
2021/03/25 07:58:17;;;;;;;9.35;4.30;;;26.20;89.00;;;;;;5104544;28;20028;-49
2021/03/25 08:00:43;;;;;;;7.10;4.78;;;26.20;88.90;;;;;;5104075;28;20035;-49
2021/03/25 08:03:17;;;;;;;13.30;4.85;;;26.20;89.50;;;;;;5104208;28;20208;-44
2021/03/25 08:05:46;;;;;;;8.07;5.10;;;26.20;88.80;;;;;;5104376;28;20062;-43
2021/03/25 08:08:27;;;;;;;11.20;4.68;;;26.20;89.10;;;;;;5104386;28;20073;-53
2021/03/25 08:11:09;;;;;;;6.35;4.90;;;26.10;89.10;;;;;;5104101;28;20020;-52
2021/03/25 08:13:44;;;;;;;8.63;4.82;;;26.20;89.10;;;;;;5104324;28;20078;-53
2021/03/25 08:16:16;;;;;;;6.60;4.18;;;26.10;89.20;;;;;;5104278;28;20245;-49
2021/03/25 08:18:48;;;;;;;8.82;4.57;;;26.10;89.80;;;;;;5104223;28;20321;-57
2021/03/25 08:21:56;;;;;;;6.70;4.45;;;26.10;89.80;;;;;;5103809;28;20059;-46
2021/03/25 08:25:04;;;;;;;6.20;4.70;;;26.10;90.00;;;;;;5104494;28;20028;-52
2021/03/25 08:27:52;;;;;;;10.25;5.15;;;26.10;90.30;;;;;;5103900;28;20032;-54
2021/03/25 08:30:43;;;;;;;12.20;5.55;;;26.10;90.50;;;;;;5104055;28;20038;-52
2021/03/25 08:33:35;;;;;;;15.80;5.22;;;26.10;90.70;;;;;;5104150;28;20019;-52
2021/03/25 08:36:27;;;;;;;13.27;5.30;;;26.10;90.60;;;;;;5103915;28;20012;-48
2021/03/25 08:39:12;;;;;;;10.27;5.22;;;26.10;90.60;;;;;;5104062;28;20020;-51
2021/03/25 08:42:01;;;;;;;7.45;5.13;;;26.10;90.60;;;;;;5103995;28;20113;-53
2021/03/25 08:44:47;;;;;;;12.13;5.28;;;26.10;90.40;;;;;;5104226;28;20062;-50
2021/03/25 08:47:13;;;;;;;9.52;4.90;;;26.10;90.40;;;;;;5103627;28;20062;-54
2021/03/25 08:49:45;;;;;;;12.85;4.97;;;26.10;90.50;;;;;;5104176;28;20035;-51
2021/03/25 08:52:17;;;;;;;6.38;4.93;;;26.10;90.40;;;;;;5103814;28;20012;-50
2021/03/25 08:54:52;;;;;;;8.90;5.55;;;26.20;90.50;;;;;;5104039;28;20212;-53
2021/03/25 08:57:26;;;;;;;7.05;4.85;;;26.20;90.50;;;;;;5103575;28;20085;-53
2021/03/25 09:00:08;;;;;;;6.60;4.80;;;26.20;90.50;;;;;;5103464;28;20020;-50
2021/03/25 09:02:43;;;;;;;11.63;5.38;;;26.20;90.50;;;;;;5103404;28;20028;-50
2021/03/25 09:05:23;;;;;;;8.75;4.80;;;26.20;90.50;;;;;;5103473;28;20012;-46
2021/03/25 09:07:50;;;;;;;9.07;4.53;;;26.20;90.40;;;;;;5085581;28;20027;-48
2021/03/25 09:10:38;;;;;;;8.82;4.93;;;26.10;90.40;;;;;;5085572;28;20024;-47
2021/03/25 09:13:07;;;;;;;6.15;4.70;;;26.20;90.40;;;;;;5104993;28;20031;-49
2021/03/25 09:15:35;;;;;;;8.43;4.82;;;26.20;90.30;;;;;;5107385;28;20016;-48
2021/03/25 09:18:08;;;;;;;12.30;4.85;;;26.20;90.20;;;;;;5107361;28;20024;-50
2021/03/25 09:20:43;;;;;;;10.45;4.53;;;26.20;90.20;;;;;;5107174;28;20090;-50
2021/03/25 09:23:31;;;;;;;7.03;4.50;;;26.20;90.20;;;;;;5107058;28;20036;-48
2021/03/25 09:26:21;;;;;;;8.30;4.88;;;26.20;90.10;;;;;;5107386;28;20087;-47
2021/03/25 09:29:00;;;;;;;11.07;5.47;;;26.20;90.00;;;;;;5107330;28;20024;-47
2021/03/25 09:31:32;;;;;;;9.50;4.95;;;26.20;90.00;;;;;;5106871;28;20213;-47
2021/03/25 09:34:21;;;;;;;10.23;5.05;;;26.20;90.00;;;;;;5107432;28;20193;-54
2021/03/25 09:36:49;;;;;;;10.45;5.60;;;26.20;90.00;;;;;;5106925;28;20058;-47
2021/03/25 09:39:33;;;;;;;10.80;5.50;;;26.20;90.10;;;;;;5107275;28;20072;-51
2021/03/25 09:42:23;;;;;;;10.88;5.50;;;26.20;90.10;;;;;;5106704;28;20016;-47
2021/03/25 09:44:50;;;;;;;9.10;5.28;;;26.20;90.00;;;;;;5106809;28;20309;-46
2021/03/25 09:47:28;;;;;;;12.30;5.47;;;26.20;90.00;;;;;;5106557;28;20027;-48
2021/03/25 09:50:03;;;;;;;7.70;4.57;;;26.20;90.00;;;;;;5106622;28;20065;-54
2021/03/25 09:52:35;;;;;;;12.30;5.05;;;26.20;90.00;;;;;;5106469;28;20016;-47
2021/03/25 09:55:02;;;;;;;8.68;5.00;;;26.20;90.00;;;;;;5106813;28;20304;-48
2021/03/25 09:57:34;;;;;;;10.32;5.53;;;26.20;90.00;;;;;;5106544;28;20024;-47
2021/03/25 10:00:23;;;;;;;8.65;5.30;;;26.20;90.00;;;;;;5106246;28;20031;-47
2021/03/25 10:02:53;;;;;;;7.75;4.93;;;26.20;90.00;;;;;;5106266;28;20028;-47
2021/03/25 10:05:30;;;;;;;10.05;5.22;;;26.20;90.00;;;;;;5106252;28;20019;-48
2021/03/25 10:08:09;;;;;;;9.20;5.13;;;26.20;90.00;;;;;;5106250;28;20020;-51
2021/03/25 10:11:00;;;;;;;12.05;5.28;;;26.20;90.00;;;;;;5106170;28;20008;-49
2021/03/25 10:13:38;;;;;;;11.10;5.30;;;26.20;90.00;;;;;;5106449;28;20031;-61
2021/03/25 10:16:37;;;;;;;7.10;5.05;;;26.20;90.10;;;;;;5106031;28;20020;-49
2021/03/25 10:19:07;;;;;;;7.93;5.10;;;26.20;90.10;;;;;;5106195;28;20055;-47
2021/03/25 10:21:57;;;;;;;12.70;5.30;;;26.20;90.10;;;;;;5106177;28;20240;-52
2021/03/25 10:24:25;;;;;;;9.77;5.30;;;26.20;90.20;;;;;;5105949;28;20031;-46
2021/03/25 10:27:12;;;;;;;8.73;4.93;;;26.20;90.20;;;;;;5105765;28;20046;-46
2021/03/25 10:29:39;;;;;;;9.30;5.18;;;26.20;90.30;;;;;;5106369;28;20039;-48
2021/03/25 10:32:17;;;;;;;11.07;5.88;;;26.20;90.30;;;;;;5105856;28;20065;-53
2021/03/25 10:34:46;;;;;;;9.63;5.10;;;26.20;90.30;;;;;;5087737;28;20028;-46
2021/03/25 10:37:38;;;;;;;9.45;5.43;;;26.20;90.30;;;;;;5105657;28;20235;-46
2021/03/25 10:40:07;;;;;;;;;;;26.20;90.30;;;;;;5105930;28;20024;-48
2021/03/25 10:42:38;;;;;;;10.68;4.90;;;26.10;90.30;;;;;;5105504;28;19946;-48
2021/03/25 10:45:24;;;;;;;12.25;5.35;;;26.10;90.20;;;;;;5105412;28;20027;-46
2021/03/25 10:47:57;;;;;;;12.88;5.85;;;26.10;90.20;;;;;;5105370;28;20029;-47
2021/03/25 10:50:50;;;;;;;8.63;5.07;;;26.10;90.20;;;;;;5105152;28;20012;-47
2021/03/25 10:53:22;;;;;;;12.00;5.75;;;26.10;90.20;;;;;;5105413;28;20031;-46
2021/03/25 10:55:54;;;;;;;13.88;5.65;;;26.10;90.30;;;;;;5105051;28;20020;-47
2021/03/25 10:58:41;;;;;;;12.23;5.55;;;26.10;90.40;;;;;;5105416;28;20039;-51
2021/03/25 11:01:20;;;;;;;9.45;5.10;;;26.00;90.50;;;;;;5105098;28;20020;-43
2021/03/25 11:03:47;;;;;;;10.38;5.28;;;26.10;90.60;;;;;;5105296;28;20090;-48
2021/03/25 11:06:46;;;;;;;17.15;5.88;;;26.10;90.60;;;;;;5104876;28;20065;-47
2021/03/25 11:09:29;;;;;;;25.75;6.70;;;26.10;90.70;;;;;;5101632;28;20091;-53
2021/03/25 11:12:20;;;;;;;14.82;6.15;;;26.10;90.80;;;;;;5105029;28;20020;-47
2021/03/25 11:14:56;;;;;;;15.52;6.60;;;26.10;90.80;;;;;;5104142;28;20038;-50
2021/03/25 11:17:34;;;;;;;19.02;6.22;;;26.10;90.90;;;;;;5104702;28;20027;-54
2021/03/25 11:20:05;;;;;;;12.07;6.00;;;26.10;91.00;;;;;;5104522;28;20078;-46
2021/03/25 11:22:33;;;;;;;13.47;5.87;;;26.10;91.00;;;;;;5104727;28;20016;-51
2021/03/25 11:25:10;;;;;;;16.13;6.30;;;26.00;91.10;;;;;;5104781;28;20099;-46
2021/03/25 11:27:37;;;;;;;12.82;5.88;;;26.00;91.30;;;;;;5104937;28;20065;-45
2021/03/25 11:30:32;;;;;;;11.02;6.18;;;26.00;91.10;;;;;;5104570;28;20015;-45
2021/03/25 11:32:59;;;;;;;17.90;6.50;;;26.00;91.10;;;;;;5104636;28;20024;-46
2021/03/25 11:35:29;;;;;;;12.73;5.75;;;26.00;91.10;;;;;;5104036;28;20024;-50
2021/03/25 11:37:56;;;;;;;17.85;6.68;;;26.00;91.10;;;;;;5104487;28;20073;-52
2021/03/25 11:40:38;;;;;;;13.77;5.88;;;26.00;91.10;;;;;;5104763;28;20038;-48
2021/03/25 11:43:10;;;;;;;14.13;6.25;;;25.90;91.10;;;;;;5104527;28;20035;-50
2021/03/25 11:45:54;;;;;;;10.02;6.50;;;25.90;91.20;;;;;;5104407;28;20020;-51
2021/03/25 11:48:33;;;;;;;17.38;6.13;;;25.90;91.20;;;;;;5104342;28;20190;-52
2021/03/25 11:51:18;;;;;;;11.73;5.72;;;25.90;91.20;;;;;;5104153;28;20114;-51
2021/03/25 11:53:53;;;;;;;9.40;5.93;;;25.90;91.30;;;;;;5104361;28;20341;-48
2021/03/25 11:56:35;;;;;;;10.00;5.55;;;25.80;91.20;;;;;;5103993;28;20023;-49
2021/03/25 11:59:14;;;;;;;13.07;5.65;;;25.80;91.20;;;;;;5104472;28;20039;-48
2021/03/25 12:01:42;;;;;;;6.50;5.30;;;25.80;91.20;;;;;;5104488;28;20030;-51
2021/03/25 12:04:15;;;;;;;9.77;5.60;;;25.80;91.20;;;;;;5104408;28;20125;-57
2021/03/25 12:06:59;;;;;;;8.88;5.82;;;25.80;91.10;;;;;;5104416;28;20012;-48
2021/03/25 12:09:27;;;;;;;7.75;5.20;;;25.80;91.10;;;;;;5104378;28;20028;-52
2021/03/25 12:11:54;;;;;;;9.05;5.30;;;25.80;91.20;;;;;;5104052;28;20317;-57
2021/03/25 12:14:24;;;;;;;8.13;5.32;;;25.80;91.20;;;;;;5104451;28;20252;-56
2021/03/25 12:16:56;;;;;;;9.68;5.53;;;25.80;91.20;;;;;;5103798;28;20027;-55
2021/03/25 12:19:24;;;;;;;6.88;5.30;;;25.80;91.20;;;;;;5104317;28;20096;-53
2021/03/25 12:21:51;;;;;;;10.32;5.38;;;25.80;91.10;;;;;;5104021;28;20083;-48
2021/03/25 12:24:18;;;;;;;9.73;6.00;;;25.80;91.10;;;;;;5104277;28;20111;-49
2021/03/25 12:26:45;;;;;;;10.85;4.97;;;25.80;91.20;;;;;;5103613;28;20088;-47
2021/03/25 12:29:13;;;;;;;8.13;5.20;;;25.80;91.20;;;;;;5104284;28;20117;-47
2021/03/25 12:31:42;;;;;;;9.88;5.30;;;25.80;91.20;;;;;;5103478;28;20097;-47
2021/03/25 12:34:11;;;;;;;8.23;5.05;;;25.80;91.10;;;;;;5104125;28;20024;-47
2021/03/25 12:36:38;;;;;;;9.52;5.57;;;25.80;91.30;;;;;;5103662;28;20023;-51
2021/03/25 12:39:08;;;;;;;6.78;4.90;;;25.80;91.50;;;;;;5104003;28;20099;-50
2021/03/25 12:41:36;;;;;;;6.93;5.07;;;25.80;91.60;;;;;;5103739;28;20320;-53
2021/03/25 12:44:05;;;;;;;8.10;5.35;;;25.80;91.60;;;;;;5103236;28;20209;-49
2021/03/25 12:46:32;;;;;;;6.55;5.25;;;25.90;91.50;;;;;;5104238;28;20031;-47
2021/03/25 12:48:59;;;;;;;8.52;5.32;;;25.90;91.30;;;;;;5107880;28;20291;-48
2021/03/25 12:51:26;;;;;;;6.40;5.03;;;25.90;91.30;;;;;;5107675;28;20073;-51
2021/03/25 12:53:53;;;;;;;8.13;4.85;;;25.90;91.40;;;;;;5108011;28;20204;-52
2021/03/25 12:56:34;;;;;;;8.80;4.45;;;25.90;91.30;;;;;;5107665;28;20094;-52
2021/03/25 12:59:08;;;;;;;8.82;4.35;;;25.80;91.20;;;;;;5091480;28;20031;-53
2021/03/25 13:01:35;;;;;;;7.43;4.65;;;25.90;91.20;;;;;;5107544;28;20023;-50
2021/03/25 13:04:02;;;;;;;9.27;4.53;;;25.90;91.30;;;;;;5107743;28;20020;-51
2021/03/25 13:06:28;;;;;;;6.45;4.90;;;25.90;91.10;;;;;;5107531;28;20031;-50
2021/03/25 13:08:55;;;;;;;10.82;4.40;;;25.90;91.10;;;;;;5107809;28;20031;-48
2021/03/25 13:11:26;;;;;;;8.48;4.28;;;25.90;91.00;;;;;;5107316;28;20024;-50
2021/03/25 13:13:53;;;;;;;6.38;3.90;;;25.90;91.00;;;;;;5107426;28;20046;-47
2021/03/25 13:16:20;;;;;;;9.32;4.22;;;25.90;91.10;;;;;;5107404;28;20019;-48
2021/03/25 13:18:47;;;;;;;4.65;3.65;;;25.90;91.00;;;;;;5107521;28;20051;-47
2021/03/25 13:21:15;;;;;;;8.18;3.70;;;25.90;91.00;;;;;;5107128;28;20039;-49
2021/03/25 13:23:42;;;;;;;4.32;3.50;;;25.90;90.90;;;;;;5107475;28;20028;-49
2021/03/25 13:26:10;;;;;;;5.32;3.80;;;26.00;90.90;;;;;;5106998;28;20016;-53
2021/03/25 13:28:39;;;;;;;5.57;3.72;;;25.90;91.00;;;;;;5107487;28;20200;-47
2021/03/25 13:31:07;;;;;;;9.23;4.18;;;25.90;91.00;;;;;;5107076;28;20012;-50